sensor_id;sensor_type;location;lat;lon;timestamp;P1;durP1;ratioP1;P2;durP2;ratioP2
9178;SDS011;4624;48.126;11.546;2022-10-26T00:01:01;2.83;;;1.30;;
9178;SDS011;4624;48.126;11.546;2022-10-26T00:03:29;5.57;;;1.63;;
9178;SDS011;4624;48.126;11.546;2022-10-26T00:06:00;1.60;;;1.30;;
9178;SDS011;4624;48.126;11.546;2022-10-26T00:08:29;3.13;;;1.50;;
9178;SDS011;4624;48.126;11.546;2022-10-26T00:10:56;3.53;;;1.50;;
9178;SDS011;4624;48.126;11.546;2022-10-26T00:13:24;2.83;;;1.50;;
9178;SDS011;4624;48.126;11.546;2022-10-26T00:15:51;2.53;;;1.30;;
9178;SDS011;4624;48.126;11.546;2022-10-26T00:18:18;2.43;;;1.20;;
9178;SDS011;4624;48.126;11.546;2022-10-26T00:20:45;1.67;;;1.23;;
9178;SDS011;4624;48.126;11.546;2022-10-26T00:23:12;2.77;;;1.50;;
9178;SDS011;4624;48.126;11.546;2022-10-26T00:25:39;2.13;;;1.30;;
9178;SDS011;4624;48.126;11.546;2022-10-26T00:28:05;2.60;;;1.40;;
9178;SDS011;4624;48.126;11.546;2022-10-26T00:30:34;4.43;;;1.40;;
9178;SDS011;4624;48.126;11.546;2022-10-26T00:33:03;2.70;;;1.37;;
9178;SDS011;4624;48.126;11.546;2022-10-26T00:35:30;1.80;;;1.20;;
9178;SDS011;4624;48.126;11.546;2022-10-26T00:37:57;3.03;;;1.13;;
9178;SDS011;4624;48.126;11.546;2022-10-26T00:40:26;2.33;;;1.47;;
9178;SDS011;4624;48.126;11.546;2022-10-26T00:42:54;1.40;;;1.00;;
9178;SDS011;4624;48.126;11.546;2022-10-26T00:45:21;3.03;;;1.67;;
9178;SDS011;4624;48.126;11.546;2022-10-26T00:47:51;1.67;;;1.17;;
9178;SDS011;4624;48.126;11.546;2022-10-26T00:50:22;2.23;;;1.10;;
9178;SDS011;4624;48.126;11.546;2022-10-26T00:52:52;1.67;;;1.27;;
9178;SDS011;4624;48.126;11.546;2022-10-26T00:55:23;1.83;;;1.13;;
9178;SDS011;4624;48.126;11.546;2022-10-26T00:57:54;1.47;;;1.37;;
9178;SDS011;4624;48.126;11.546;2022-10-26T01:00:21;2.73;;;1.30;;
9178;SDS011;4624;48.126;11.546;2022-10-26T01:02:48;3.33;;;1.10;;
9178;SDS011;4624;48.126;11.546;2022-10-26T01:05:20;2.30;;;1.00;;
9178;SDS011;4624;48.126;11.546;2022-10-26T01:07:47;3.30;;;1.40;;
9178;SDS011;4624;48.126;11.546;2022-10-26T01:10:16;1.30;;;1.20;;
9178;SDS011;4624;48.126;11.546;2022-10-26T01:12:42;2.00;;;1.17;;
9178;SDS011;4624;48.126;11.546;2022-10-26T01:15:10;3.83;;;1.03;;
9178;SDS011;4624;48.126;11.546;2022-10-26T01:17:41;5.63;;;1.20;;
9178;SDS011;4624;48.126;11.546;2022-10-26T01:23:16;1.20;;;0.80;;
9178;SDS011;4624;48.126;11.546;2022-10-26T01:25:54;1.60;;;0.90;;
9178;SDS011;4624;48.126;11.546;2022-10-26T01:28:51;1.20;;;0.90;;
9178;SDS011;4624;48.126;11.546;2022-10-26T01:31:35;2.40;;;1.00;;
9178;SDS011;4624;48.126;11.546;2022-10-26T01:34:07;2.67;;;0.80;;
9178;SDS011;4624;48.126;11.546;2022-10-26T01:36:41;2.90;;;0.90;;
9178;SDS011;4624;48.126;11.546;2022-10-26T01:39:13;2.87;;;0.80;;
9178;SDS011;4624;48.126;11.546;2022-10-26T01:41:45;1.00;;;0.80;;
9178;SDS011;4624;48.126;11.546;2022-10-26T01:44:15;2.07;;;0.87;;
9178;SDS011;4624;48.126;11.546;2022-10-26T01:46:47;6.93;;;1.00;;
9178;SDS011;4624;48.126;11.546;2022-10-26T01:49:17;1.23;;;0.80;;
9178;SDS011;4624;48.126;11.546;2022-10-26T01:51:47;3.33;;;1.03;;
9178;SDS011;4624;48.126;11.546;2022-10-26T01:54:14;2.77;;;0.77;;
9178;SDS011;4624;48.126;11.546;2022-10-26T01:56:42;1.40;;;1.00;;
9178;SDS011;4624;48.126;11.546;2022-10-26T01:59:18;0.73;;;0.73;;
9178;SDS011;4624;48.126;11.546;2022-10-26T02:02:13;1.93;;;1.00;;
9178;SDS011;4624;48.126;11.546;2022-10-26T02:05:08;3.57;;;0.87;;
9178;SDS011;4624;48.126;11.546;2022-10-26T02:07:55;3.07;;;0.97;;
9178;SDS011;4624;48.126;11.546;2022-10-26T02:10:33;1.67;;;0.90;;
9178;SDS011;4624;48.126;11.546;2022-10-26T02:13:13;1.63;;;0.67;;
9178;SDS011;4624;48.126;11.546;2022-10-26T02:15:45;2.70;;;1.33;;
9178;SDS011;4624;48.126;11.546;2022-10-26T02:18:21;1.30;;;0.73;;
9178;SDS011;4624;48.126;11.546;2022-10-26T02:20:53;1.50;;;0.90;;
9178;SDS011;4624;48.126;11.546;2022-10-26T02:23:24;0.77;;;0.60;;
9178;SDS011;4624;48.126;11.546;2022-10-26T02:25:54;1.70;;;1.00;;
9178;SDS011;4624;48.126;11.546;2022-10-26T02:28:24;2.70;;;0.80;;
9178;SDS011;4624;48.126;11.546;2022-10-26T02:30:55;1.27;;;0.80;;
9178;SDS011;4624;48.126;11.546;2022-10-26T02:33:26;1.23;;;1.00;;
9178;SDS011;4624;48.126;11.546;2022-10-26T02:35:57;1.67;;;0.73;;
9178;SDS011;4624;48.126;11.546;2022-10-26T02:38:25;1.53;;;1.00;;
9178;SDS011;4624;48.126;11.546;2022-10-26T02:40:56;3.27;;;1.00;;
9178;SDS011;4624;48.126;11.546;2022-10-26T02:43:25;3.27;;;1.00;;
9178;SDS011;4624;48.126;11.546;2022-10-26T02:45:55;2.17;;;0.90;;
9178;SDS011;4624;48.126;11.546;2022-10-26T02:48:26;3.60;;;0.60;;
9178;SDS011;4624;48.126;11.546;2022-10-26T02:50:55;2.00;;;1.03;;
9178;SDS011;4624;48.126;11.546;2022-10-26T02:53:27;2.40;;;0.87;;
9178;SDS011;4624;48.126;11.546;2022-10-26T02:55:59;2.10;;;0.70;;
9178;SDS011;4624;48.126;11.546;2022-10-26T02:58:32;1.40;;;0.70;;
9178;SDS011;4624;48.126;11.546;2022-10-26T03:01:04;0.80;;;0.80;;
9178;SDS011;4624;48.126;11.546;2022-10-26T03:03:32;1.77;;;0.90;;
9178;SDS011;4624;48.126;11.546;2022-10-26T03:05:59;1.63;;;0.70;;
9178;SDS011;4624;48.126;11.546;2022-10-26T03:08:25;1.33;;;0.80;;
9178;SDS011;4624;48.126;11.546;2022-10-26T03:10:53;1.93;;;0.63;;
9178;SDS011;4624;48.126;11.546;2022-10-26T03:13:19;1.97;;;0.90;;
9178;SDS011;4624;48.126;11.546;2022-10-26T03:15:46;2.00;;;0.90;;
9178;SDS011;4624;48.126;11.546;2022-10-26T03:18:13;0.80;;;0.80;;
9178;SDS011;4624;48.126;11.546;2022-10-26T03:20:43;4.23;;;0.90;;
9178;SDS011;4624;48.126;11.546;2022-10-26T03:23:10;6.00;;;0.70;;
9178;SDS011;4624;48.126;11.546;2022-10-26T03:25:37;2.50;;;1.00;;
9178;SDS011;4624;48.126;11.546;2022-10-26T03:28:04;1.77;;;0.83;;
9178;SDS011;4624;48.126;11.546;2022-10-26T03:30:31;2.30;;;0.67;;
9178;SDS011;4624;48.126;11.546;2022-10-26T03:32:58;2.10;;;0.80;;
9178;SDS011;4624;48.126;11.546;2022-10-26T03:35:25;2.60;;;0.90;;
9178;SDS011;4624;48.126;11.546;2022-10-26T03:37:53;1.93;;;0.80;;
9178;SDS011;4624;48.126;11.546;2022-10-26T03:40:19;1.50;;;0.73;;
9178;SDS011;4624;48.126;11.546;2022-10-26T03:42:46;3.90;;;0.80;;
9178;SDS011;4624;48.126;11.546;2022-10-26T03:45:13;1.07;;;0.70;;
9178;SDS011;4624;48.126;11.546;2022-10-26T03:47:43;1.80;;;0.80;;
9178;SDS011;4624;48.126;11.546;2022-10-26T03:50:11;1.80;;;0.87;;
9178;SDS011;4624;48.126;11.546;2022-10-26T03:52:39;1.50;;;0.70;;
9178;SDS011;4624;48.126;11.546;2022-10-26T03:55:08;1.30;;;0.70;;
9178;SDS011;4624;48.126;11.546;2022-10-26T03:57:38;0.97;;;0.70;;
9178;SDS011;4624;48.126;11.546;2022-10-26T04:00:06;2.77;;;0.87;;
9178;SDS011;4624;48.126;11.546;2022-10-26T04:02:34;1.53;;;0.83;;
9178;SDS011;4624;48.126;11.546;2022-10-26T04:05:01;1.47;;;0.90;;
9178;SDS011;4624;48.126;11.546;2022-10-26T04:07:28;2.50;;;1.00;;
9178;SDS011;4624;48.126;11.546;2022-10-26T04:09:55;2.10;;;0.90;;
9178;SDS011;4624;48.126;11.546;2022-10-26T04:12:23;1.97;;;1.10;;
9178;SDS011;4624;48.126;11.546;2022-10-26T04:14:50;4.53;;;1.27;;
9178;SDS011;4624;48.126;11.546;2022-10-26T04:17:16;2.57;;;0.90;;
9178;SDS011;4624;48.126;11.546;2022-10-26T04:19:43;1.77;;;0.90;;
9178;SDS011;4624;48.126;11.546;2022-10-26T04:22:10;1.33;;;0.83;;
9178;SDS011;4624;48.126;11.546;2022-10-26T04:24:37;0.70;;;0.67;;
9178;SDS011;4624;48.126;11.546;2022-10-26T04:27:03;1.63;;;1.10;;
9178;SDS011;4624;48.126;11.546;2022-10-26T04:29:31;3.43;;;1.30;;
9178;SDS011;4624;48.126;11.546;2022-10-26T04:31:58;3.23;;;1.10;;
9178;SDS011;4624;48.126;11.546;2022-10-26T04:34:25;1.53;;;0.90;;
9178;SDS011;4624;48.126;11.546;2022-10-26T04:36:52;2.50;;;0.90;;
9178;SDS011;4624;48.126;11.546;2022-10-26T04:39:19;3.33;;;0.90;;
9178;SDS011;4624;48.126;11.546;2022-10-26T04:41:46;2.43;;;0.80;;
9178;SDS011;4624;48.126;11.546;2022-10-26T04:44:13;0.80;;;0.77;;
9178;SDS011;4624;48.126;11.546;2022-10-26T04:46:41;3.03;;;0.80;;
9178;SDS011;4624;48.126;11.546;2022-10-26T04:49:07;2.80;;;0.80;;
9178;SDS011;4624;48.126;11.546;2022-10-26T04:51:34;0.83;;;0.70;;
9178;SDS011;4624;48.126;11.546;2022-10-26T04:54:01;1.03;;;0.63;;
9178;SDS011;4624;48.126;11.546;2022-10-26T04:56:28;1.33;;;0.70;;
9178;SDS011;4624;48.126;11.546;2022-10-26T04:58:55;1.93;;;1.17;;
9178;SDS011;4624;48.126;11.546;2022-10-26T05:01:21;1.57;;;1.23;;
9178;SDS011;4624;48.126;11.546;2022-10-26T05:03:50;2.93;;;1.07;;
9178;SDS011;4624;48.126;11.546;2022-10-26T05:06:17;3.07;;;1.60;;
9178;SDS011;4624;48.126;11.546;2022-10-26T05:08:44;4.93;;;3.40;;
9178;SDS011;4624;48.126;11.546;2022-10-26T05:11:11;2.23;;;1.33;;
9178;SDS011;4624;48.126;11.546;2022-10-26T05:13:38;1.53;;;1.07;;
9178;SDS011;4624;48.126;11.546;2022-10-26T05:16:05;2.93;;;1.03;;
9178;SDS011;4624;48.126;11.546;2022-10-26T05:18:32;0.90;;;0.80;;
9178;SDS011;4624;48.126;11.546;2022-10-26T05:21:00;1.17;;;0.70;;
9178;SDS011;4624;48.126;11.546;2022-10-26T05:23:27;2.47;;;0.90;;
9178;SDS011;4624;48.126;11.546;2022-10-26T05:25:54;1.47;;;0.80;;
9178;SDS011;4624;48.126;11.546;2022-10-26T05:28:21;2.63;;;1.10;;
9178;SDS011;4624;48.126;11.546;2022-10-26T05:30:48;3.67;;;0.90;;
9178;SDS011;4624;48.126;11.546;2022-10-26T05:33:15;2.97;;;1.00;;
9178;SDS011;4624;48.126;11.546;2022-10-26T05:35:42;4.00;;;1.10;;
9178;SDS011;4624;48.126;11.546;2022-10-26T05:38:12;3.63;;;1.13;;
9178;SDS011;4624;48.126;11.546;2022-10-26T05:40:45;1.93;;;1.13;;
9178;SDS011;4624;48.126;11.546;2022-10-26T05:43:12;2.40;;;2.20;;
9178;SDS011;4624;48.126;11.546;2022-10-26T05:45:39;3.70;;;1.77;;
9178;SDS011;4624;48.126;11.546;2022-10-26T05:48:06;2.57;;;1.73;;
9178;SDS011;4624;48.126;11.546;2022-10-26T05:50:33;1.60;;;1.47;;
9178;SDS011;4624;48.126;11.546;2022-10-26T05:53:00;1.73;;;1.50;;
9178;SDS011;4624;48.126;11.546;2022-10-26T05:55:28;2.07;;;1.23;;
9178;SDS011;4624;48.126;11.546;2022-10-26T05:57:56;5.77;;;1.13;;
9178;SDS011;4624;48.126;11.546;2022-10-26T06:00:24;3.90;;;1.47;;
9178;SDS011;4624;48.126;11.546;2022-10-26T06:02:56;3.73;;;1.40;;
9178;SDS011;4624;48.126;11.546;2022-10-26T06:05:34;1.87;;;1.30;;
9178;SDS011;4624;48.126;11.546;2022-10-26T06:08:16;3.47;;;1.00;;
9178;SDS011;4624;48.126;11.546;2022-10-26T06:10:45;3.00;;;1.17;;
9178;SDS011;4624;48.126;11.546;2022-10-26T06:13:12;3.37;;;1.40;;
9178;SDS011;4624;48.126;11.546;2022-10-26T06:15:42;3.07;;;1.53;;
9178;SDS011;4624;48.126;11.546;2022-10-26T06:18:17;1.50;;;1.37;;
9178;SDS011;4624;48.126;11.546;2022-10-26T06:20:51;3.77;;;1.20;;
9178;SDS011;4624;48.126;11.546;2022-10-26T06:23:31;4.10;;;0.93;;
9178;SDS011;4624;48.126;11.546;2022-10-26T06:26:11;3.57;;;1.50;;
9178;SDS011;4624;48.126;11.546;2022-10-26T06:28:46;2.53;;;1.37;;
9178;SDS011;4624;48.126;11.546;2022-10-26T06:31:19;3.20;;;1.30;;
9178;SDS011;4624;48.126;11.546;2022-10-26T06:33:46;5.00;;;1.73;;
9178;SDS011;4624;48.126;11.546;2022-10-26T06:36:16;4.90;;;1.53;;
9178;SDS011;4624;48.126;11.546;2022-10-26T06:38:47;3.53;;;1.57;;
9178;SDS011;4624;48.126;11.546;2022-10-26T06:41:17;6.13;;;1.83;;
9178;SDS011;4624;48.126;11.546;2022-10-26T06:43:46;4.37;;;1.70;;
9178;SDS011;4624;48.126;11.546;2022-10-26T06:46:15;4.40;;;1.47;;
9178;SDS011;4624;48.126;11.546;2022-10-26T06:48:50;5.03;;;1.50;;
9178;SDS011;4624;48.126;11.546;2022-10-26T06:51:23;3.17;;;1.40;;
9178;SDS011;4624;48.126;11.546;2022-10-26T06:53:51;3.13;;;1.50;;
9178;SDS011;4624;48.126;11.546;2022-10-26T06:56:26;4.33;;;1.37;;
9178;SDS011;4624;48.126;11.546;2022-10-26T06:58:53;2.10;;;1.53;;
9178;SDS011;4624;48.126;11.546;2022-10-26T07:01:23;5.00;;;1.70;;
9178;SDS011;4624;48.126;11.546;2022-10-26T07:03:49;3.50;;;1.60;;
9178;SDS011;4624;48.126;11.546;2022-10-26T07:06:16;3.07;;;2.43;;
9178;SDS011;4624;48.126;11.546;2022-10-26T07:08:43;5.50;;;2.20;;
9178;SDS011;4624;48.126;11.546;2022-10-26T07:11:10;4.50;;;2.43;;
9178;SDS011;4624;48.126;11.546;2022-10-26T07:13:38;4.27;;;2.07;;
9178;SDS011;4624;48.126;11.546;2022-10-26T07:16:04;4.63;;;1.63;;
9178;SDS011;4624;48.126;11.546;2022-10-26T07:18:32;3.50;;;1.23;;
9178;SDS011;4624;48.126;11.546;2022-10-26T07:20:58;4.73;;;1.23;;
9178;SDS011;4624;48.126;11.546;2022-10-26T07:23:25;2.87;;;1.07;;
9178;SDS011;4624;48.126;11.546;2022-10-26T07:25:52;3.37;;;1.60;;
9178;SDS011;4624;48.126;11.546;2022-10-26T07:28:18;3.50;;;1.03;;
9178;SDS011;4624;48.126;11.546;2022-10-26T07:30:46;6.53;;;1.03;;
9178;SDS011;4624;48.126;11.546;2022-10-26T07:33:13;3.87;;;0.80;;
9178;SDS011;4624;48.126;11.546;2022-10-26T07:35:40;7.17;;;1.33;;
9178;SDS011;4624;48.126;11.546;2022-10-26T07:38:07;1.20;;;1.00;;
9178;SDS011;4624;48.126;11.546;2022-10-26T07:40:34;1.63;;;1.00;;
9178;SDS011;4624;48.126;11.546;2022-10-26T07:43:02;3.67;;;1.03;;
9178;SDS011;4624;48.126;11.546;2022-10-26T07:45:28;1.40;;;1.10;;
9178;SDS011;4624;48.126;11.546;2022-10-26T07:47:57;3.80;;;1.13;;
9178;SDS011;4624;48.126;11.546;2022-10-26T07:50:23;1.47;;;1.10;;
9178;SDS011;4624;48.126;11.546;2022-10-26T07:52:51;4.20;;;1.63;;
9178;SDS011;4624;48.126;11.546;2022-10-26T07:55:18;2.67;;;1.30;;
9178;SDS011;4624;48.126;11.546;2022-10-26T07:57:45;2.63;;;1.80;;
9178;SDS011;4624;48.126;11.546;2022-10-26T08:00:12;2.93;;;1.70;;
9178;SDS011;4624;48.126;11.546;2022-10-26T08:02:40;1.97;;;1.40;;
9178;SDS011;4624;48.126;11.546;2022-10-26T08:05:08;1.70;;;1.30;;
9178;SDS011;4624;48.126;11.546;2022-10-26T08:07:39;2.40;;;1.50;;
9178;SDS011;4624;48.126;11.546;2022-10-26T08:10:07;2.53;;;0.80;;
9178;SDS011;4624;48.126;11.546;2022-10-26T08:12:34;2.17;;;0.77;;
9178;SDS011;4624;48.126;11.546;2022-10-26T08:15:01;2.93;;;0.90;;
9178;SDS011;4624;48.126;11.546;2022-10-26T08:17:28;1.40;;;0.70;;
9178;SDS011;4624;48.126;11.546;2022-10-26T08:19:54;2.47;;;0.73;;
9178;SDS011;4624;48.126;11.546;2022-10-26T08:22:23;3.47;;;0.93;;
9178;SDS011;4624;48.126;11.546;2022-10-26T08:24:49;2.70;;;1.00;;
9178;SDS011;4624;48.126;11.546;2022-10-26T08:27:16;1.70;;;1.00;;
9178;SDS011;4624;48.126;11.546;2022-10-26T08:29:43;1.87;;;0.90;;
9178;SDS011;4624;48.126;11.546;2022-10-26T08:32:09;2.43;;;0.87;;
9178;SDS011;4624;48.126;11.546;2022-10-26T08:34:36;2.40;;;1.00;;
9178;SDS011;4624;48.126;11.546;2022-10-26T08:37:03;1.53;;;1.00;;
9178;SDS011;4624;48.126;11.546;2022-10-26T08:39:31;2.73;;;1.20;;
9178;SDS011;4624;48.126;11.546;2022-10-26T08:42:00;2.07;;;0.87;;
9178;SDS011;4624;48.126;11.546;2022-10-26T08:44:32;0.87;;;0.80;;
9178;SDS011;4624;48.126;11.546;2022-10-26T08:47:04;2.40;;;1.17;;
9178;SDS011;4624;48.126;11.546;2022-10-26T08:49:38;1.67;;;0.83;;
9178;SDS011;4624;48.126;11.546;2022-10-26T08:52:10;3.33;;;0.70;;
9178;SDS011;4624;48.126;11.546;2022-10-26T08:54:42;2.27;;;1.03;;
9178;SDS011;4624;48.126;11.546;2022-10-26T08:57:15;5.10;;;1.60;;
9178;SDS011;4624;48.126;11.546;2022-10-26T08:59:48;3.60;;;1.50;;
9178;SDS011;4624;48.126;11.546;2022-10-26T09:02:19;3.97;;;1.67;;
9178;SDS011;4624;48.126;11.546;2022-10-26T09:04:46;2.83;;;1.30;;
9178;SDS011;4624;48.126;11.546;2022-10-26T09:07:16;1.90;;;1.40;;
9178;SDS011;4624;48.126;11.546;2022-10-26T09:10:08;2.53;;;1.08;;
9178;SDS011;4624;48.126;11.546;2022-10-26T09:12:43;1.73;;;0.73;;
9178;SDS011;4624;48.126;11.546;2022-10-26T09:15:21;1.95;;;0.75;;
9178;SDS011;4624;48.126;11.546;2022-10-26T09:17:55;4.30;;;0.77;;
9178;SDS011;4624;48.126;11.546;2022-10-26T09:23:28;1.13;;;0.88;;
9178;SDS011;4624;48.126;11.546;2022-10-26T09:26:13;1.73;;;0.73;;
9178;SDS011;4624;48.126;11.546;2022-10-26T09:28:44;0.95;;;0.50;;
9178;SDS011;4624;48.126;11.546;2022-10-26T09:31:14;1.73;;;0.63;;
9178;SDS011;4624;48.126;11.546;2022-10-26T09:33:43;1.83;;;0.90;;
9178;SDS011;4624;48.126;11.546;2022-10-26T09:36:10;0.88;;;0.57;;
9178;SDS011;4624;48.126;11.546;2022-10-26T09:38:43;2.03;;;0.40;;
9178;SDS011;4624;48.126;11.546;2022-10-26T09:41:17;1.55;;;0.52;;
9178;SDS011;4624;48.126;11.546;2022-10-26T09:43:49;1.23;;;0.57;;
9178;SDS011;4624;48.126;11.546;2022-10-26T09:46:22;1.58;;;0.70;;
9178;SDS011;4624;48.126;11.546;2022-10-26T09:48:55;2.13;;;0.70;;
9178;SDS011;4624;48.126;11.546;2022-10-26T09:51:25;3.00;;;0.60;;
9178;SDS011;4624;48.126;11.546;2022-10-26T09:53:52;3.20;;;0.60;;
9178;SDS011;4624;48.126;11.546;2022-10-26T09:56:22;1.98;;;0.70;;
9178;SDS011;4624;48.126;11.546;2022-10-26T09:58:52;0.65;;;0.50;;
9178;SDS011;4624;48.126;11.546;2022-10-26T10:01:27;2.42;;;0.73;;
9178;SDS011;4624;48.126;11.546;2022-10-26T10:04:09;1.05;;;0.70;;
9178;SDS011;4624;48.126;11.546;2022-10-26T10:06:49;3.50;;;0.70;;
9178;SDS011;4624;48.126;11.546;2022-10-26T10:09:17;2.85;;;0.50;;
9178;SDS011;4624;48.126;11.546;2022-10-26T10:11:47;1.00;;;0.60;;
9178;SDS011;4624;48.126;11.546;2022-10-26T10:14:20;0.88;;;0.50;;
9178;SDS011;4624;48.126;11.546;2022-10-26T10:16:49;1.00;;;0.80;;
9178;SDS011;4624;48.126;11.546;2022-10-26T10:19:22;0.55;;;0.50;;
9178;SDS011;4624;48.126;11.546;2022-10-26T10:21:51;3.13;;;0.60;;
9178;SDS011;4624;48.126;11.546;2022-10-26T10:24:24;4.83;;;0.60;;
9178;SDS011;4624;48.126;11.546;2022-10-26T10:27:01;3.20;;;0.70;;
9178;SDS011;4624;48.126;11.546;2022-10-26T10:29:30;1.53;;;0.70;;
9178;SDS011;4624;48.126;11.546;2022-10-26T10:31:58;1.30;;;0.40;;
9178;SDS011;4624;48.126;11.546;2022-10-26T10:34:26;1.10;;;0.50;;
9178;SDS011;4624;48.126;11.546;2022-10-26T10:36:55;1.53;;;0.50;;
9178;SDS011;4624;48.126;11.546;2022-10-26T10:39:27;1.60;;;0.50;;
9178;SDS011;4624;48.126;11.546;2022-10-26T10:42:05;0.73;;;0.60;;
9178;SDS011;4624;48.126;11.546;2022-10-26T10:44:40;1.70;;;0.63;;
9178;SDS011;4624;48.126;11.546;2022-10-26T10:47:15;2.10;;;0.83;;
9178;SDS011;4624;48.126;11.546;2022-10-26T10:49:49;3.67;;;0.67;;
9178;SDS011;4624;48.126;11.546;2022-10-26T10:52:21;2.50;;;0.97;;
9178;SDS011;4624;48.126;11.546;2022-10-26T10:54:49;3.30;;;0.80;;
9178;SDS011;4624;48.126;11.546;2022-10-26T10:57:26;1.80;;;0.67;;
9178;SDS011;4624;48.126;11.546;2022-10-26T11:00:03;2.33;;;0.53;;
9178;SDS011;4624;48.126;11.546;2022-10-26T11:02:44;2.67;;;0.97;;
9178;SDS011;4624;48.126;11.546;2022-10-26T11:05:34;3.00;;;1.03;;
9178;SDS011;4624;48.126;11.546;2022-10-26T11:08:07;3.93;;;0.90;;
9178;SDS011;4624;48.126;11.546;2022-10-26T11:10:37;2.83;;;0.60;;
9178;SDS011;4624;48.126;11.546;2022-10-26T11:13:12;3.90;;;0.80;;
9178;SDS011;4624;48.126;11.546;2022-10-26T11:15:43;2.57;;;0.80;;
9178;SDS011;4624;48.126;11.546;2022-10-26T11:18:14;1.93;;;0.80;;
9178;SDS011;4624;48.126;11.546;2022-10-26T11:20:44;4.37;;;1.10;;
9178;SDS011;4624;48.126;11.546;2022-10-26T11:23:17;1.63;;;0.90;;
9178;SDS011;4624;48.126;11.546;2022-10-26T11:25:48;3.57;;;0.80;;
9178;SDS011;4624;48.126;11.546;2022-10-26T11:28:21;2.63;;;0.80;;
9178;SDS011;4624;48.126;11.546;2022-10-26T11:30:59;2.80;;;0.80;;
9178;SDS011;4624;48.126;11.546;2022-10-26T11:33:31;3.23;;;0.90;;
9178;SDS011;4624;48.126;11.546;2022-10-26T11:36:02;3.70;;;1.20;;
9178;SDS011;4624;48.126;11.546;2022-10-26T11:38:32;3.73;;;1.00;;
9178;SDS011;4624;48.126;11.546;2022-10-26T11:41:06;3.03;;;1.00;;
9178;SDS011;4624;48.126;11.546;2022-10-26T11:43:42;3.23;;;0.90;;
9178;SDS011;4624;48.126;11.546;2022-10-26T11:46:11;4.47;;;1.20;;
9178;SDS011;4624;48.126;11.546;2022-10-26T11:48:42;2.50;;;1.00;;
9178;SDS011;4624;48.126;11.546;2022-10-26T11:51:14;2.53;;;0.97;;
9178;SDS011;4624;48.126;11.546;2022-10-26T11:53:45;4.90;;;1.40;;
9178;SDS011;4624;48.126;11.546;2022-10-26T11:56:16;3.80;;;1.03;;
9178;SDS011;4624;48.126;11.546;2022-10-26T11:58:51;5.07;;;1.00;;
9178;SDS011;4624;48.126;11.546;2022-10-26T12:01:19;2.57;;;1.10;;
9178;SDS011;4624;48.126;11.546;2022-10-26T12:03:47;5.43;;;1.40;;
9178;SDS011;4624;48.126;11.546;2022-10-26T12:06:18;4.27;;;1.30;;
9178;SDS011;4624;48.126;11.546;2022-10-26T12:08:49;1.87;;;1.03;;
9178;SDS011;4624;48.126;11.546;2022-10-26T12:11:27;4.13;;;1.00;;
9178;SDS011;4624;48.126;11.546;2022-10-26T12:14:04;5.60;;;1.40;;
9178;SDS011;4624;48.126;11.546;2022-10-26T12:16:42;11.77;;;1.67;;
9178;SDS011;4624;48.126;11.546;2022-10-26T12:19:17;4.67;;;1.40;;
9178;SDS011;4624;48.126;11.546;2022-10-26T12:21:47;3.23;;;1.30;;
9178;SDS011;4624;48.126;11.546;2022-10-26T12:24:26;4.97;;;1.17;;
9178;SDS011;4624;48.126;11.546;2022-10-26T12:26:54;3.77;;;1.67;;
9178;SDS011;4624;48.126;11.546;2022-10-26T12:29:36;1.60;;;1.00;;
9178;SDS011;4624;48.126;11.546;2022-10-26T12:41:24;3.33;;;1.13;;
9178;SDS011;4624;48.126;11.546;2022-10-26T12:43:55;5.37;;;1.40;;
9178;SDS011;4624;48.126;11.546;2022-10-26T12:52:20;4.97;;;1.97;;
9178;SDS011;4624;48.126;11.546;2022-10-26T12:55:12;6.90;;;1.50;;
9178;SDS011;4624;48.126;11.546;2022-10-26T12:58:01;5.63;;;1.50;;
9178;SDS011;4624;48.126;11.546;2022-10-26T13:00:47;6.40;;;1.37;;
9178;SDS011;4624;48.126;11.546;2022-10-26T13:03:35;4.87;;;1.30;;
9178;SDS011;4624;48.126;11.546;2022-10-26T13:09:13;4.47;;;1.30;;
9178;SDS011;4624;48.126;11.546;2022-10-26T13:11:45;5.37;;;1.50;;
9178;SDS011;4624;48.126;11.546;2022-10-26T13:14:18;3.27;;;1.20;;
9178;SDS011;4624;48.126;11.546;2022-10-26T13:16:47;4.03;;;1.23;;
9178;SDS011;4624;48.126;11.546;2022-10-26T13:19:26;6.53;;;1.30;;
9178;SDS011;4624;48.126;11.546;2022-10-26T13:21:57;4.37;;;1.53;;
9178;SDS011;4624;48.126;11.546;2022-10-26T13:24:26;4.37;;;1.10;;
9178;SDS011;4624;48.126;11.546;2022-10-26T13:32:46;3.60;;;1.10;;
9178;SDS011;4624;48.126;11.546;2022-10-26T13:35:16;6.40;;;1.80;;
9178;SDS011;4624;48.126;11.546;2022-10-26T13:37:46;4.80;;;1.37;;
9178;SDS011;4624;48.126;11.546;2022-10-26T13:40:15;5.47;;;1.47;;
9178;SDS011;4624;48.126;11.546;2022-10-26T13:42:43;6.23;;;1.17;;
9178;SDS011;4624;48.126;11.546;2022-10-26T13:45:13;6.60;;;1.33;;
9178;SDS011;4624;48.126;11.546;2022-10-26T13:47:44;4.53;;;1.50;;
9178;SDS011;4624;48.126;11.546;2022-10-26T13:50:17;5.97;;;1.50;;
9178;SDS011;4624;48.126;11.546;2022-10-26T13:52:48;6.37;;;1.40;;
9178;SDS011;4624;48.126;11.546;2022-10-26T13:55:19;3.50;;;1.13;;
9178;SDS011;4624;48.126;11.546;2022-10-26T13:57:53;4.13;;;1.20;;
9178;SDS011;4624;48.126;11.546;2022-10-26T14:00:30;5.07;;;1.20;;
9178;SDS011;4624;48.126;11.546;2022-10-26T14:02:57;7.23;;;1.23;;
9178;SDS011;4624;48.126;11.546;2022-10-26T14:05:26;6.77;;;1.10;;
9178;SDS011;4624;48.126;11.546;2022-10-26T14:07:53;3.43;;;1.30;;
9178;SDS011;4624;48.126;11.546;2022-10-26T14:10:23;5.43;;;1.23;;
9178;SDS011;4624;48.126;11.546;2022-10-26T14:12:53;2.93;;;1.10;;
9178;SDS011;4624;48.126;11.546;2022-10-26T14:15:22;2.40;;;1.00;;
9178;SDS011;4624;48.126;11.546;2022-10-26T14:17:52;7.40;;;1.67;;
9178;SDS011;4624;48.126;11.546;2022-10-26T14:20:21;4.50;;;1.10;;
9178;SDS011;4624;48.126;11.546;2022-10-26T14:22:50;3.50;;;1.20;;
9178;SDS011;4624;48.126;11.546;2022-10-26T14:25:18;5.73;;;1.37;;
9178;SDS011;4624;48.126;11.546;2022-10-26T14:27:46;3.93;;;1.23;;
9178;SDS011;4624;48.126;11.546;2022-10-26T14:30:19;7.07;;;1.67;;
9178;SDS011;4624;48.126;11.546;2022-10-26T14:32:47;6.13;;;1.30;;
9178;SDS011;4624;48.126;11.546;2022-10-26T14:35:15;2.63;;;1.00;;
9178;SDS011;4624;48.126;11.546;2022-10-26T14:37:43;3.00;;;1.30;;
9178;SDS011;4624;48.126;11.546;2022-10-26T14:40:16;3.43;;;1.30;;
9178;SDS011;4624;48.126;11.546;2022-10-26T14:42:44;4.50;;;1.30;;
9178;SDS011;4624;48.126;11.546;2022-10-26T14:45:19;3.53;;;1.30;;
9178;SDS011;4624;48.126;11.546;2022-10-26T14:47:49;3.50;;;1.17;;
9178;SDS011;4624;48.126;11.546;2022-10-26T14:50:16;3.87;;;1.30;;
9178;SDS011;4624;48.126;11.546;2022-10-26T14:52:48;4.53;;;1.40;;
9178;SDS011;4624;48.126;11.546;2022-10-26T14:55:17;3.57;;;1.20;;
9178;SDS011;4624;48.126;11.546;2022-10-26T14:57:45;1.63;;;0.93;;
9178;SDS011;4624;48.126;11.546;2022-10-26T15:00:14;3.73;;;1.33;;
9178;SDS011;4624;48.126;11.546;2022-10-26T15:02:43;3.80;;;1.20;;
9178;SDS011;4624;48.126;11.546;2022-10-26T15:05:16;2.43;;;1.10;;
9178;SDS011;4624;48.126;11.546;2022-10-26T15:07:45;8.13;;;1.70;;
9178;SDS011;4624;48.126;11.546;2022-10-26T15:13:17;3.00;;;1.50;;
9178;SDS011;4624;48.126;11.546;2022-10-26T15:15:51;5.97;;;1.60;;
9178;SDS011;4624;48.126;11.546;2022-10-26T15:18:20;4.93;;;1.30;;
9178;SDS011;4624;48.126;11.546;2022-10-26T15:20:49;4.37;;;1.33;;
9178;SDS011;4624;48.126;11.546;2022-10-26T15:23:17;5.13;;;1.37;;
9178;SDS011;4624;48.126;11.546;2022-10-26T15:25:50;5.53;;;1.60;;
9178;SDS011;4624;48.126;11.546;2022-10-26T15:28:20;2.63;;;1.50;;
9178;SDS011;4624;48.126;11.546;2022-10-26T15:30:58;6.33;;;1.67;;
9178;SDS011;4624;48.126;11.546;2022-10-26T15:33:27;3.60;;;1.40;;
9178;SDS011;4624;48.126;11.546;2022-10-26T15:36:06;5.43;;;1.37;;
9178;SDS011;4624;48.126;11.546;2022-10-26T15:38:38;4.47;;;1.90;;
9178;SDS011;4624;48.126;11.546;2022-10-26T15:41:08;5.17;;;2.07;;
9178;SDS011;4624;48.126;11.546;2022-10-26T15:43:40;5.60;;;1.90;;
9178;SDS011;4624;48.126;11.546;2022-10-26T15:46:06;4.67;;;1.70;;
9178;SDS011;4624;48.126;11.546;2022-10-26T15:48:33;3.47;;;1.67;;
9178;SDS011;4624;48.126;11.546;2022-10-26T15:51:00;5.60;;;1.60;;
9178;SDS011;4624;48.126;11.546;2022-10-26T15:53:27;6.07;;;2.00;;